sensor_id;sensor_type;location;lat;lon;timestamp;temperature;humidity
41882;DHT22;27562;47.524;12.404;2022-08-11T00:02:15;15.30;99.90
41882;DHT22;27562;47.524;12.404;2022-08-11T00:04:41;15.30;99.90
41882;DHT22;27562;47.524;12.404;2022-08-11T00:07:06;15.30;99.90
41882;DHT22;27562;47.524;12.404;2022-08-11T00:09:35;15.30;99.90
41882;DHT22;27562;47.524;12.404;2022-08-11T00:12:01;15.20;99.90
41882;DHT22;27562;47.524;12.404;2022-08-11T00:14:29;15.30;99.90
41882;DHT22;27562;47.524;12.404;2022-08-11T00:17:02;15.20;99.90
41882;DHT22;27562;47.524;12.404;2022-08-11T00:19:30;15.20;99.90
41882;DHT22;27562;47.524;12.404;2022-08-11T00:21:56;15.20;99.90
41882;DHT22;27562;47.524;12.404;2022-08-11T00:24:22;15.10;99.90
41882;DHT22;27562;47.524;12.404;2022-08-11T00:26:52;15.10;99.90
41882;DHT22;27562;47.524;12.404;2022-08-11T00:29:18;15.10;99.90
41882;DHT22;27562;47.524;12.404;2022-08-11T00:31:45;15.10;99.90
41882;DHT22;27562;47.524;12.404;2022-08-11T00:34:12;15.10;99.90
41882;DHT22;27562;47.524;12.404;2022-08-11T00:36:39;15.10;99.90
41882;DHT22;27562;47.524;12.404;2022-08-11T00:39:07;15.10;99.90
41882;DHT22;27562;47.524;12.404;2022-08-11T00:47:15;15.00;99.90
41882;DHT22;27562;47.524;12.404;2022-08-11T00:54:42;14.90;99.90
41882;DHT22;27562;47.524;12.404;2022-08-11T01:05:18;14.60;99.90
41882;DHT22;27562;47.524;12.404;2022-08-11T01:24:14;14.50;99.90
41882;DHT22;27562;47.524;12.404;2022-08-11T01:27:31;14.40;99.90
41882;DHT22;27562;47.524;12.404;2022-08-11T01:37:43;14.40;99.90
41882;DHT22;27562;47.524;12.404;2022-08-11T01:40:20;14.30;99.90
41882;DHT22;27562;47.524;12.404;2022-08-11T01:50:34;14.20;99.90
41882;DHT22;27562;47.524;12.404;2022-08-11T01:55:31;14.20;99.90
41882;DHT22;27562;47.524;12.404;2022-08-11T01:58:07;14.10;99.90
41882;DHT22;27562;47.524;12.404;2022-08-11T02:00:53;14.00;99.90
41882;DHT22;27562;47.524;12.404;2022-08-11T02:10:57;13.80;99.90
41882;DHT22;27562;47.524;12.404;2022-08-11T02:13:48;13.80;99.90
41882;DHT22;27562;47.524;12.404;2022-08-11T02:19:04;13.80;99.90
41882;DHT22;27562;47.524;12.404;2022-08-11T02:21:58;13.70;99.90
41882;DHT22;27562;47.524;12.404;2022-08-11T02:25:06;13.70;99.90
41882;DHT22;27562;47.524;12.404;2022-08-11T02:27:41;13.70;99.90
41882;DHT22;27562;47.524;12.404;2022-08-11T02:30:15;13.70;99.90
41882;DHT22;27562;47.524;12.404;2022-08-11T02:35:57;13.60;99.90
41882;DHT22;27562;47.524;12.404;2022-08-11T02:49:27;13.40;99.90
41882;DHT22;27562;47.524;12.404;2022-08-11T02:55:21;13.40;99.90
41882;DHT22;27562;47.524;12.404;2022-08-11T02:58:16;13.40;99.90
41882;DHT22;27562;47.524;12.404;2022-08-11T03:03:49;13.30;99.90
41882;DHT22;27562;47.524;12.404;2022-08-11T03:06:34;13.20;99.90
41882;DHT22;27562;47.524;12.404;2022-08-11T03:09:41;13.20;99.90
41882;DHT22;27562;47.524;12.404;2022-08-11T03:12:17;13.20;99.90
41882;DHT22;27562;47.524;12.404;2022-08-11T03:15:23;13.30;99.90
41882;DHT22;27562;47.524;12.404;2022-08-11T03:24:48;13.20;99.90
41882;DHT22;27562;47.524;12.404;2022-08-11T03:27:33;13.20;99.90
41882;DHT22;27562;47.524;12.404;2022-08-11T03:35:44;13.10;99.90
41882;DHT22;27562;47.524;12.404;2022-08-11T03:38:14;13.10;99.90
41882;DHT22;27562;47.524;12.404;2022-08-11T03:46:34;13.00;99.90
41882;DHT22;27562;47.524;12.404;2022-08-11T03:51:59;13.00;99.90
41882;DHT22;27562;47.524;12.404;2022-08-11T04:09:05;12.70;99.90
41882;DHT22;27562;47.524;12.404;2022-08-11T04:21:05;12.60;99.90
41882;DHT22;27562;47.524;12.404;2022-08-11T04:26:47;12.50;99.90
41882;DHT22;27562;47.524;12.404;2022-08-11T04:58:26;12.50;99.90
41882;DHT22;27562;47.524;12.404;2022-08-11T05:10:50;12.50;99.90
41882;DHT22;27562;47.524;12.404;2022-08-11T05:13:31;12.50;99.90
41882;DHT22;27562;47.524;12.404;2022-08-11T05:16:20;12.50;99.90
41882;DHT22;27562;47.524;12.404;2022-08-11T05:19:06;12.60;99.90
41882;DHT22;27562;47.524;12.404;2022-08-11T05:21:58;12.60;99.90
41882;DHT22;27562;47.524;12.404;2022-08-11T05:24:46;12.60;99.90
41882;DHT22;27562;47.524;12.404;2022-08-11T05:27:44;12.50;99.90
41882;DHT22;27562;47.524;12.404;2022-08-11T05:30:32;12.50;99.90
41882;DHT22;27562;47.524;12.404;2022-08-11T05:33:32;12.60;99.90
41882;DHT22;27562;47.524;12.404;2022-08-11T05:36:26;12.60;99.90
41882;DHT22;27562;47.524;12.404;2022-08-11T05:38:59;12.70;99.90
41882;DHT22;27562;47.524;12.404;2022-08-11T05:41:45;12.70;99.90
41882;DHT22;27562;47.524;12.404;2022-08-11T05:44:30;12.70;99.90
41882;DHT22;27562;47.524;12.404;2022-08-11T05:47:23;12.70;99.90
41882;DHT22;27562;47.524;12.404;2022-08-11T05:50:10;12.80;99.90
41882;DHT22;27562;47.524;12.404;2022-08-11T05:52:55;12.90;99.90
41882;DHT22;27562;47.524;12.404;2022-08-11T05:55:41;13.00;99.90
41882;DHT22;27562;47.524;12.404;2022-08-11T05:58:50;13.10;99.90
41882;DHT22;27562;47.524;12.404;2022-08-11T06:01:30;13.20;99.90
41882;DHT22;27562;47.524;12.404;2022-08-11T06:03:58;13.30;99.90
41882;DHT22;27562;47.524;12.404;2022-08-11T06:07:06;13.40;99.90
41882;DHT22;27562;47.524;12.404;2022-08-11T06:12:27;13.60;99.90
41882;DHT22;27562;47.524;12.404;2022-08-11T06:15:00;13.60;99.90
41882;DHT22;27562;47.524;12.404;2022-08-11T06:17:29;13.70;99.90
41882;DHT22;27562;47.524;12.404;2022-08-11T06:20:03;13.70;99.90
41882;DHT22;27562;47.524;12.404;2022-08-11T06:22:31;13.80;99.90
41882;DHT22;27562;47.524;12.404;2022-08-11T06:24:59;13.90;99.90
41882;DHT22;27562;47.524;12.404;2022-08-11T06:27:28;14.00;99.90
41882;DHT22;27562;47.524;12.404;2022-08-11T06:29:55;14.10;99.90
41882;DHT22;27562;47.524;12.404;2022-08-11T06:32:33;14.20;99.90
41882;DHT22;27562;47.524;12.404;2022-08-11T06:40:56;14.50;99.90
41882;DHT22;27562;47.524;12.404;2022-08-11T06:43:57;14.60;99.90
41882;DHT22;27562;47.524;12.404;2022-08-11T06:46:29;14.80;99.90
41882;DHT22;27562;47.524;12.404;2022-08-11T06:48:56;14.90;99.90
41882;DHT22;27562;47.524;12.404;2022-08-11T06:51:23;14.90;99.90
41882;DHT22;27562;47.524;12.404;2022-08-11T06:53:57;15.10;99.90
41882;DHT22;27562;47.524;12.404;2022-08-11T06:56:30;15.10;99.90
41882;DHT22;27562;47.524;12.404;2022-08-11T06:59:19;15.20;99.90
41882;DHT22;27562;47.524;12.404;2022-08-11T07:02:12;15.40;99.90
41882;DHT22;27562;47.524;12.404;2022-08-11T07:04:58;15.50;99.90
41882;DHT22;27562;47.524;12.404;2022-08-11T07:11:00;15.70;99.90
41882;DHT22;27562;47.524;12.404;2022-08-11T07:13:50;15.80;99.90
41882;DHT22;27562;47.524;12.404;2022-08-11T07:16:38;15.90;99.90
41882;DHT22;27562;47.524;12.404;2022-08-11T07:19:07;16.00;99.90
41882;DHT22;27562;47.524;12.404;2022-08-11T07:21:54;16.10;99.90
41882;DHT22;27562;47.524;12.404;2022-08-11T07:24:53;16.20;99.90
41882;DHT22;27562;47.524;12.404;2022-08-11T07:27:45;16.40;99.90
41882;DHT22;27562;47.524;12.404;2022-08-11T07:30:34;16.60;99.90
41882;DHT22;27562;47.524;12.404;2022-08-11T07:33:02;16.80;99.90
41882;DHT22;27562;47.524;12.404;2022-08-11T07:35:32;16.90;99.90
41882;DHT22;27562;47.524;12.404;2022-08-11T07:38:08;17.10;99.90
41882;DHT22;27562;47.524;12.404;2022-08-11T07:40:36;17.30;99.90
41882;DHT22;27562;47.524;12.404;2022-08-11T07:43:03;17.40;99.90
41882;DHT22;27562;47.524;12.404;2022-08-11T07:45:31;17.60;99.90
41882;DHT22;27562;47.524;12.404;2022-08-11T07:48:17;17.70;99.90
41882;DHT22;27562;47.524;12.404;2022-08-11T07:51:02;17.90;99.90
41882;DHT22;27562;47.524;12.404;2022-08-11T07:53:47;18.00;99.90
41882;DHT22;27562;47.524;12.404;2022-08-11T07:56:13;18.20;99.90
41882;DHT22;27562;47.524;12.404;2022-08-11T07:58:41;18.30;99.90
41882;DHT22;27562;47.524;12.404;2022-08-11T08:01:26;18.50;99.90
41882;DHT22;27562;47.524;12.404;2022-08-11T08:04:13;18.70;99.90
41882;DHT22;27562;47.524;12.404;2022-08-11T08:07:00;18.80;99.90
41882;DHT22;27562;47.524;12.404;2022-08-11T08:09:47;19.00;99.90
41882;DHT22;27562;47.524;12.404;2022-08-11T08:12:33;19.20;99.90
41882;DHT22;27562;47.524;12.404;2022-08-11T08:15:19;19.40;99.90
41882;DHT22;27562;47.524;12.404;2022-08-11T08:18:05;19.50;99.30
41882;DHT22;27562;47.524;12.404;2022-08-11T08:20:38;19.70;99.30
41882;DHT22;27562;47.524;12.404;2022-08-11T08:23:05;19.70;98.90
41882;DHT22;27562;47.524;12.404;2022-08-11T08:25:33;19.90;99.30
41882;DHT22;27562;47.524;12.404;2022-08-11T08:28:02;20.00;98.70
41882;DHT22;27562;47.524;12.404;2022-08-11T08:30:30;20.20;98.80
41882;DHT22;27562;47.524;12.404;2022-08-11T08:33:26;20.30;98.80
41882;DHT22;27562;47.524;12.404;2022-08-11T08:36:03;20.50;99.10
41882;DHT22;27562;47.524;12.404;2022-08-11T08:38:51;20.70;99.10
41882;DHT22;27562;47.524;12.404;2022-08-11T08:41:29;20.90;99.00
41882;DHT22;27562;47.524;12.404;2022-08-11T08:43:59;21.00;98.50
41882;DHT22;27562;47.524;12.404;2022-08-11T08:46:35;21.10;98.50
41882;DHT22;27562;47.524;12.404;2022-08-11T08:49:02;21.30;96.30
41882;DHT22;27562;47.524;12.404;2022-08-11T08:51:35;21.40;95.60
41882;DHT22;27562;47.524;12.404;2022-08-11T08:54:16;21.50;95.30
41882;DHT22;27562;47.524;12.404;2022-08-11T08:56:44;21.60;94.40
41882;DHT22;27562;47.524;12.404;2022-08-11T08:59:12;21.80;94.60
41882;DHT22;27562;47.524;12.404;2022-08-11T09:01:45;21.90;93.50
41882;DHT22;27562;47.524;12.404;2022-08-11T09:04:12;22.00;92.60
41882;DHT22;27562;47.524;12.404;2022-08-11T09:06:39;22.10;93.80
41882;DHT22;27562;47.524;12.404;2022-08-11T09:09:08;22.30;92.30
41882;DHT22;27562;47.524;12.404;2022-08-11T09:11:35;22.30;92.00
41882;DHT22;27562;47.524;12.404;2022-08-11T09:14:34;22.40;93.40
41882;DHT22;27562;47.524;12.404;2022-08-11T09:17:20;22.50;93.70
41882;DHT22;27562;47.524;12.404;2022-08-11T09:19:50;22.70;92.20
41882;DHT22;27562;47.524;12.404;2022-08-11T09:22:19;22.80;91.00
41882;DHT22;27562;47.524;12.404;2022-08-11T09:25:05;22.90;91.60
41882;DHT22;27562;47.524;12.404;2022-08-11T09:27:51;23.10;91.50
41882;DHT22;27562;47.524;12.404;2022-08-11T09:30:19;23.20;90.30
41882;DHT22;27562;47.524;12.404;2022-08-11T09:32:45;23.40;90.60
41882;DHT22;27562;47.524;12.404;2022-08-11T09:35:12;23.50;90.30
41882;DHT22;27562;47.524;12.404;2022-08-11T09:37:39;23.50;90.00
41882;DHT22;27562;47.524;12.404;2022-08-11T09:40:24;23.60;90.10
41882;DHT22;27562;47.524;12.404;2022-08-11T09:42:58;23.80;90.30
41882;DHT22;27562;47.524;12.404;2022-08-11T09:45:47;23.90;87.90
41882;DHT22;27562;47.524;12.404;2022-08-11T09:48:22;24.00;88.20
41882;DHT22;27562;47.524;12.404;2022-08-11T09:50:52;24.10;87.40
41882;DHT22;27562;47.524;12.404;2022-08-11T09:53:19;24.10;88.80
41882;DHT22;27562;47.524;12.404;2022-08-11T09:55:45;24.20;85.70
41882;DHT22;27562;47.524;12.404;2022-08-11T09:58:13;24.40;86.20
41882;DHT22;27562;47.524;12.404;2022-08-11T10:00:41;24.50;86.80
41882;DHT22;27562;47.524;12.404;2022-08-11T10:03:15;24.60;82.30
41882;DHT22;27562;47.524;12.404;2022-08-11T10:05:45;24.70;83.00
41882;DHT22;27562;47.524;12.404;2022-08-11T10:08:31;24.90;81.90
41882;DHT22;27562;47.524;12.404;2022-08-11T10:11:00;25.00;81.50
41882;DHT22;27562;47.524;12.404;2022-08-11T10:13:36;25.10;79.90
41882;DHT22;27562;47.524;12.404;2022-08-11T10:16:25;25.30;80.80
41882;DHT22;27562;47.524;12.404;2022-08-11T10:18:52;25.50;76.60
41882;DHT22;27562;47.524;12.404;2022-08-11T10:23:48;25.50;78.70
41882;DHT22;27562;47.524;12.404;2022-08-11T10:26:35;25.60;76.50
41882;DHT22;27562;47.524;12.404;2022-08-11T10:32:08;25.90;76.60
41882;DHT22;27562;47.524;12.404;2022-08-11T10:34:53;26.00;75.20
41882;DHT22;27562;47.524;12.404;2022-08-11T10:37:20;26.10;74.70
41882;DHT22;27562;47.524;12.404;2022-08-11T10:39:46;26.20;76.40
41882;DHT22;27562;47.524;12.404;2022-08-11T10:42:13;26.20;74.10
41882;DHT22;27562;47.524;12.404;2022-08-11T10:44:57;26.30;73.70
41882;DHT22;27562;47.524;12.404;2022-08-11T10:47:25;26.40;74.70
41882;DHT22;27562;47.524;12.404;2022-08-11T10:50:01;26.40;71.90
41882;DHT22;27562;47.524;12.404;2022-08-11T10:52:47;26.40;71.80
41882;DHT22;27562;47.524;12.404;2022-08-11T10:55:31;26.50;73.10
41882;DHT22;27562;47.524;12.404;2022-08-11T10:58:16;26.50;72.80
41882;DHT22;27562;47.524;12.404;2022-08-11T11:01:00;26.60;73.70
41882;DHT22;27562;47.524;12.404;2022-08-11T11:03:27;26.60;70.80
41882;DHT22;27562;47.524;12.404;2022-08-11T11:05:55;26.70;72.00
41882;DHT22;27562;47.524;12.404;2022-08-11T11:08:24;26.70;72.30
41882;DHT22;27562;47.524;12.404;2022-08-11T11:11:09;26.80;70.20
41882;DHT22;27562;47.524;12.404;2022-08-11T11:13:37;26.70;73.00
41882;DHT22;27562;47.524;12.404;2022-08-11T11:16:21;26.70;70.90
41882;DHT22;27562;47.524;12.404;2022-08-11T11:19:06;26.70;72.10
41882;DHT22;27562;47.524;12.404;2022-08-11T11:21:33;26.90;68.50
41882;DHT22;27562;47.524;12.404;2022-08-11T11:24:23;26.90;70.20
41882;DHT22;27562;47.524;12.404;2022-08-11T11:29:38;26.90;69.00
41882;DHT22;27562;47.524;12.404;2022-08-11T11:37:22;26.80;69.10
41882;DHT22;27562;47.524;12.404;2022-08-11T11:39:48;26.70;68.80
41882;DHT22;27562;47.524;12.404;2022-08-11T11:42:14;26.80;68.90
41882;DHT22;27562;47.524;12.404;2022-08-11T11:44:42;26.90;70.10
41882;DHT22;27562;47.524;12.404;2022-08-11T11:47:10;27.00;70.80
41882;DHT22;27562;47.524;12.404;2022-08-11T11:49:36;27.00;68.90
41882;DHT22;27562;47.524;12.404;2022-08-11T11:52:05;26.90;67.70
41882;DHT22;27562;47.524;12.404;2022-08-11T11:54:32;26.80;68.40
41882;DHT22;27562;47.524;12.404;2022-08-11T11:56:58;26.60;69.00
41882;DHT22;27562;47.524;12.404;2022-08-11T11:59:45;26.70;68.50
41882;DHT22;27562;47.524;12.404;2022-08-11T12:02:30;26.70;69.60
41882;DHT22;27562;47.524;12.404;2022-08-11T12:04:56;26.80;69.60
41882;DHT22;27562;47.524;12.404;2022-08-11T12:07:21;26.80;67.60
41882;DHT22;27562;47.524;12.404;2022-08-11T12:10:06;26.80;68.60
41882;DHT22;27562;47.524;12.404;2022-08-11T12:12:32;26.80;68.10
41882;DHT22;27562;47.524;12.404;2022-08-11T12:15:16;26.70;68.40
41882;DHT22;27562;47.524;12.404;2022-08-11T12:17:44;26.80;69.70
41882;DHT22;27562;47.524;12.404;2022-08-11T12:20:10;26.80;67.80
41882;DHT22;27562;47.524;12.404;2022-08-11T12:22:39;26.70;67.00
41882;DHT22;27562;47.524;12.404;2022-08-11T12:25:23;26.50;68.60
41882;DHT22;27562;47.524;12.404;2022-08-11T12:28:08;26.50;67.30
41882;DHT22;27562;47.524;12.404;2022-08-11T12:30:33;26.50;66.50
41882;DHT22;27562;47.524;12.404;2022-08-11T12:32:59;26.50;67.50
41882;DHT22;27562;47.524;12.404;2022-08-11T12:35:25;26.50;67.00
41882;DHT22;27562;47.524;12.404;2022-08-11T12:37:51;26.50;68.10
41882;DHT22;27562;47.524;12.404;2022-08-11T12:40:24;26.50;66.80
41882;DHT22;27562;47.524;12.404;2022-08-11T12:43:13;26.50;66.00
41882;DHT22;27562;47.524;12.404;2022-08-11T12:45:57;26.60;66.50
41882;DHT22;27562;47.524;12.404;2022-08-11T12:48:30;26.80;68.30
41882;DHT22;27562;47.524;12.404;2022-08-11T12:51:18;26.90;68.10
41882;DHT22;27562;47.524;12.404;2022-08-11T12:56:30;27.00;66.50
41882;DHT22;27562;47.524;12.404;2022-08-11T12:59:15;27.00;64.30
41882;DHT22;27562;47.524;12.404;2022-08-11T13:02:01;26.90;67.20
41882;DHT22;27562;47.524;12.404;2022-08-11T13:04:45;27.00;66.80
41882;DHT22;27562;47.524;12.404;2022-08-11T13:07:24;27.00;66.20
41882;DHT22;27562;47.524;12.404;2022-08-11T13:09:50;27.00;64.80
41882;DHT22;27562;47.524;12.404;2022-08-11T13:12:16;27.10;66.90
41882;DHT22;27562;47.524;12.404;2022-08-11T13:15:00;27.30;65.00
41882;DHT22;27562;47.524;12.404;2022-08-11T13:17:26;27.10;63.80
41882;DHT22;27562;47.524;12.404;2022-08-11T13:19:54;27.00;64.00
41882;DHT22;27562;47.524;12.404;2022-08-11T13:22:21;27.00;64.90
41882;DHT22;27562;47.524;12.404;2022-08-11T13:24:48;27.20;64.30
41882;DHT22;27562;47.524;12.404;2022-08-11T13:27:15;27.30;64.30
41882;DHT22;27562;47.524;12.404;2022-08-11T13:29:42;27.30;64.00
41882;DHT22;27562;47.524;12.404;2022-08-11T13:32:11;27.20;64.10
41882;DHT22;27562;47.524;12.404;2022-08-11T13:34:37;27.20;65.10
41882;DHT22;27562;47.524;12.404;2022-08-11T13:37:08;27.20;64.70
41882;DHT22;27562;47.524;12.404;2022-08-11T13:39:34;27.20;63.90
41882;DHT22;27562;47.524;12.404;2022-08-11T13:42:02;27.00;63.30
41882;DHT22;27562;47.524;12.404;2022-08-11T13:44:29;27.00;63.30
41882;DHT22;27562;47.524;12.404;2022-08-11T13:46:56;26.90;63.20
41882;DHT22;27562;47.524;12.404;2022-08-11T13:49:22;26.80;64.80
41882;DHT22;27562;47.524;12.404;2022-08-11T13:51:48;26.80;64.50
41882;DHT22;27562;47.524;12.404;2022-08-11T13:54:15;26.90;63.70
41882;DHT22;27562;47.524;12.404;2022-08-11T13:56:44;26.90;64.00
41882;DHT22;27562;47.524;12.404;2022-08-11T13:59:11;27.00;65.50
41882;DHT22;27562;47.524;12.404;2022-08-11T14:01:38;26.90;63.70
41882;DHT22;27562;47.524;12.404;2022-08-11T14:04:08;26.80;63.50
41882;DHT22;27562;47.524;12.404;2022-08-11T14:06:34;26.70;64.20
41882;DHT22;27562;47.524;12.404;2022-08-11T14:09:02;26.70;64.00
41882;DHT22;27562;47.524;12.404;2022-08-11T14:11:27;26.70;64.00
41882;DHT22;27562;47.524;12.404;2022-08-11T14:14:15;26.50;62.50
41882;DHT22;27562;47.524;12.404;2022-08-11T14:16:43;26.40;64.80
41882;DHT22;27562;47.524;12.404;2022-08-11T14:19:10;26.40;64.00
41882;DHT22;27562;47.524;12.404;2022-08-11T14:21:37;26.40;63.70
41882;DHT22;27562;47.524;12.404;2022-08-11T14:24:23;26.50;64.20
41882;DHT22;27562;47.524;12.404;2022-08-11T14:26:49;26.60;63.50
41882;DHT22;27562;47.524;12.404;2022-08-11T14:29:19;26.50;62.80
41882;DHT22;27562;47.524;12.404;2022-08-11T14:31:54;26.40;63.70
41882;DHT22;27562;47.524;12.404;2022-08-11T14:34:21;26.40;64.00
41882;DHT22;27562;47.524;12.404;2022-08-11T14:36:51;26.50;62.30
41882;DHT22;27562;47.524;12.404;2022-08-11T14:39:18;26.40;63.70
41882;DHT22;27562;47.524;12.404;2022-08-11T14:41:46;26.50;63.30
41882;DHT22;27562;47.524;12.404;2022-08-11T14:44:31;26.40;61.90
41882;DHT22;27562;47.524;12.404;2022-08-11T14:47:17;26.40;62.40
41882;DHT22;27562;47.524;12.404;2022-08-11T14:49:43;26.20;61.70
41882;DHT22;27562;47.524;12.404;2022-08-11T14:52:10;26.10;62.00
41882;DHT22;27562;47.524;12.404;2022-08-11T14:54:43;26.10;59.90
41882;DHT22;27562;47.524;12.404;2022-08-11T14:57:28;26.10;63.10
41882;DHT22;27562;47.524;12.404;2022-08-11T14:59:55;26.00;62.10
41882;DHT22;27562;47.524;12.404;2022-08-11T15:02:22;25.90;61.70
41882;DHT22;27562;47.524;12.404;2022-08-11T15:05:06;25.80;62.50
41882;DHT22;27562;47.524;12.404;2022-08-11T15:07:32;25.80;61.30
41882;DHT22;27562;47.524;12.404;2022-08-11T15:10:02;25.70;60.60
41882;DHT22;27562;47.524;12.404;2022-08-11T15:12:28;25.50;61.00
41882;DHT22;27562;47.524;12.404;2022-08-11T15:14:54;25.40;61.40
41882;DHT22;27562;47.524;12.404;2022-08-11T15:17:38;25.30;60.60
41882;DHT22;27562;47.524;12.404;2022-08-11T15:20:06;25.20;61.40
41882;DHT22;27562;47.524;12.404;2022-08-11T15:22:51;25.10;61.60
41882;DHT22;27562;47.524;12.404;2022-08-11T15:25:35;25.10;61.10
41882;DHT22;27562;47.524;12.404;2022-08-11T15:28:02;25.10;62.20
41882;DHT22;27562;47.524;12.404;2022-08-11T15:30:48;25.10;60.40
41882;DHT22;27562;47.524;12.404;2022-08-11T15:33:33;25.00;60.60
41882;DHT22;27562;47.524;12.404;2022-08-11T15:36:18;25.00;60.80
41882;DHT22;27562;47.524;12.404;2022-08-11T15:39:06;24.80;61.20
41882;DHT22;27562;47.524;12.404;2022-08-11T15:41:40;24.70;60.60
41882;DHT22;27562;47.524;12.404;2022-08-11T15:44:28;24.60;61.40
41882;DHT22;27562;47.524;12.404;2022-08-11T15:47:13;24.40;61.50
41882;DHT22;27562;47.524;12.404;2022-08-11T15:49:39;24.40;61.70
41882;DHT22;27562;47.524;12.404;2022-08-11T15:52:06;24.30;61.80
41882;DHT22;27562;47.524;12.404;2022-08-11T15:54:36;24.20;61.60
41882;DHT22;27562;47.524;12.404;2022-08-11T15:57:03;24.20;61.80
41882;DHT22;27562;47.524;12.404;2022-08-11T15:59:30;24.20;62.00
41882;DHT22;27562;47.524;12.404;2022-08-11T16:02:15;24.20;61.80
41882;DHT22;27562;47.524;12.404;2022-08-11T16:05:00;24.20;61.30
41882;DHT22;27562;47.524;12.404;2022-08-11T16:07:29;24.20;63.00
41882;DHT22;27562;47.524;12.404;2022-08-11T16:09:59;24.20;63.10
41882;DHT22;27562;47.524;12.404;2022-08-11T16:12:30;24.20;62.10
41882;DHT22;27562;47.524;12.404;2022-08-11T16:14:58;24.20;60.30
41882;DHT22;27562;47.524;12.404;2022-08-11T16:17:44;24.20;61.50
41882;DHT22;27562;47.524;12.404;2022-08-11T16:20:13;24.10;60.70
41882;DHT22;27562;47.524;12.404;2022-08-11T16:22:40;23.90;61.30
41882;DHT22;27562;47.524;12.404;2022-08-11T16:25:12;23.90;62.40
41882;DHT22;27562;47.524;12.404;2022-08-11T16:27:42;23.90;61.40
41882;DHT22;27562;47.524;12.404;2022-08-11T16:30:09;23.90;61.80
41882;DHT22;27562;47.524;12.404;2022-08-11T16:32:37;24.00;62.40
41882;DHT22;27562;47.524;12.404;2022-08-11T16:35:14;24.10;62.00
41882;DHT22;27562;47.524;12.404;2022-08-11T16:37:59;24.10;60.40
41882;DHT22;27562;47.524;12.404;2022-08-11T16:40:45;24.00;60.80
41882;DHT22;27562;47.524;12.404;2022-08-11T16:43:12;24.00;60.50
41882;DHT22;27562;47.524;12.404;2022-08-11T16:45:57;24.00;63.50
41882;DHT22;27562;47.524;12.404;2022-08-11T16:48:42;23.90;61.40
41882;DHT22;27562;47.524;12.404;2022-08-11T16:51:11;23.90;61.10
41882;DHT22;27562;47.524;12.404;2022-08-11T16:53:37;23.80;61.00
41882;DHT22;27562;47.524;12.404;2022-08-11T16:56:04;23.70;61.50
41882;DHT22;27562;47.524;12.404;2022-08-11T16:58:30;23.60;61.20
41882;DHT22;27562;47.524;12.404;2022-08-11T17:01:15;23.50;60.80
41882;DHT22;27562;47.524;12.404;2022-08-11T17:03:43;23.40;61.10
41882;DHT22;27562;47.524;12.404;2022-08-11T17:06:28;23.40;61.80
41882;DHT22;27562;47.524;12.404;2022-08-11T17:09:12;23.40;61.10
41882;DHT22;27562;47.524;12.404;2022-08-11T17:11:57;23.40;61.60
41882;DHT22;27562;47.524;12.404;2022-08-11T17:14:47;23.40;61.60
41882;DHT22;27562;47.524;12.404;2022-08-11T17:17:14;23.30;61.10
41882;DHT22;27562;47.524;12.404;2022-08-11T17:19:43;23.30;62.70
41882;DHT22;27562;47.524;12.404;2022-08-11T17:22:10;23.20;61.80
41882;DHT22;27562;47.524;12.404;2022-08-11T17:24:54;23.20;61.10
41882;DHT22;27562;47.524;12.404;2022-08-11T17:27:20;23.10;61.60
41882;DHT22;27562;47.524;12.404;2022-08-11T17:29:49;23.00;62.20
41882;DHT22;27562;47.524;12.404;2022-08-11T17:32:17;22.90;61.90
41882;DHT22;27562;47.524;12.404;2022-08-11T17:35:03;22.90;61.10
41882;DHT22;27562;47.524;12.404;2022-08-11T17:37:48;22.80;61.70
41882;DHT22;27562;47.524;12.404;2022-08-11T17:40:16;22.70;61.50
41882;DHT22;27562;47.524;12.404;2022-08-11T17:42:43;22.60;62.30
41882;DHT22;27562;47.524;12.404;2022-08-11T17:45:27;22.60;62.20
41882;DHT22;27562;47.524;12.404;2022-08-11T17:48:12;22.50;62.80
41882;DHT22;27562;47.524;12.404;2022-08-11T17:50:51;22.50;62.00
41882;DHT22;27562;47.524;12.404;2022-08-11T17:53:17;22.50;62.10
41882;DHT22;27562;47.524;12.404;2022-08-11T17:56:02;22.40;62.90
41882;DHT22;27562;47.524;12.404;2022-08-11T17:58:47;22.30;62.50
41882;DHT22;27562;47.524;12.404;2022-08-11T18:01:34;22.30;62.60
41882;DHT22;27562;47.524;12.404;2022-08-11T18:04:03;22.20;63.50
41882;DHT22;27562;47.524;12.404;2022-08-11T18:06:29;22.20;63.00
41882;DHT22;27562;47.524;12.404;2022-08-11T18:08:56;22.20;62.10
41882;DHT22;27562;47.524;12.404;2022-08-11T18:11:41;22.10;62.40
41882;DHT22;27562;47.524;12.404;2022-08-11T18:14:26;22.10;63.10
41882;DHT22;27562;47.524;12.404;2022-08-11T18:17:11;22.00;63.10
41882;DHT22;27562;47.524;12.404;2022-08-11T18:19:55;22.00;63.50
41882;DHT22;27562;47.524;12.404;2022-08-11T18:22:40;22.00;63.60
41882;DHT22;27562;47.524;12.404;2022-08-11T18:25:26;22.00;63.20
41882;DHT22;27562;47.524;12.404;2022-08-11T18:28:11;22.00;63.60
41882;DHT22;27562;47.524;12.404;2022-08-11T18:30:56;21.90;63.30
41882;DHT22;27562;47.524;12.404;2022-08-11T18:33:43;21.80;64.50
41882;DHT22;27562;47.524;12.404;2022-08-11T18:36:33;21.80;64.00
41882;DHT22;27562;47.524;12.404;2022-08-11T18:39:18;21.70;64.80
41882;DHT22;27562;47.524;12.404;2022-08-11T18:42:05;21.70;64.30
41882;DHT22;27562;47.524;12.404;2022-08-11T18:44:51;21.70;64.30
41882;DHT22;27562;47.524;12.404;2022-08-11T18:47:36;21.70;64.60
41882;DHT22;27562;47.524;12.404;2022-08-11T18:50:21;21.70;65.00
41882;DHT22;27562;47.524;12.404;2022-08-11T18:53:06;21.60;65.00
41882;DHT22;27562;47.524;12.404;2022-08-11T18:55:50;21.50;65.20
41882;DHT22;27562;47.524;12.404;2022-08-11T18:58:34;21.50;65.10
41882;DHT22;27562;47.524;12.404;2022-08-11T19:01:20;21.50;65.70
41882;DHT22;27562;47.524;12.404;2022-08-11T19:04:05;21.40;66.20
41882;DHT22;27562;47.524;12.404;2022-08-11T19:06:51;21.30;65.80
41882;DHT22;27562;47.524;12.404;2022-08-11T19:09:36;21.30;66.10
41882;DHT22;27562;47.524;12.404;2022-08-11T19:12:22;21.30;66.20
41882;DHT22;27562;47.524;12.404;2022-08-11T19:15:07;21.30;66.80
41882;DHT22;27562;47.524;12.404;2022-08-11T19:17:52;21.20;66.50
41882;DHT22;27562;47.524;12.404;2022-08-11T19:20:36;21.20;67.00
41882;DHT22;27562;47.524;12.404;2022-08-11T19:23:26;21.20;67.00
41882;DHT22;27562;47.524;12.404;2022-08-11T19:26:12;21.10;67.20
41882;DHT22;27562;47.524;12.404;2022-08-11T19:28:56;21.20;66.00
41882;DHT22;27562;47.524;12.404;2022-08-11T19:31:41;21.20;66.60